Latest  Newer  Older  Last 2 hours slideshow  Last 24 hours slideshow  Refresh every 5 minutes 
Current image  Latest image  Rain/snow radar  Cloud coverage sat images 

All time is UTC (add 2 hours to UTC in wintertime, 3 hours to UTC in DST for Latvia local time)

2019/12/15 07:50 EVRA 150750Z 18007KT 9999 -RA OVC005 02/02 Q0995 R18/290195 NOSIG
2019/12/15 07:50 EVLA 150750Z AUTO 23012KT 9999 FEW028/// BKN038/// 06/04 Q0994
2019/12/15 07:50 EVVA 150750Z AUTO 15005KT 9999 BKN005 BKN021 OVC033 02/02 Q0993
2019/12/15 07:50 EYKA 150750Z 22009KT 160V250 9999 -DZ BKN013 OVC017 03/01 Q0998 R08/290095
2019/12/15 07:50 EYPA 150750Z 25009KT 200V290 9999 -SHRA SCT018CB BKN092 05/03 Q0996 R19/2///95
2019/12/15 07:50 EYSA 150750Z 21009KT 9999 -RA SCT004 OVC023 01/01 Q0996 R14L/29//95 R14R/29//95 YLO2 NOSIG
2019/12/15 07:50 EYVI 150750Z 23012KT 9999 OVC008 02/02 Q0999 R19/2///95 NOSIG

2019/12/15 07:50 EEKE 150750Z AUTO 16010KT 9999NDV FEW011 BKN019 OVC035 03/03 Q0993
2019/12/15 07:50 EEPU 150750Z 14004KT 080V210 9999 BKN006 OVC010 01/01 Q0995
2019/12/15 07:50 EETN 150750Z 13007KT 110V170 9999 OVC006 01/01 Q0995 R08/290195 TEMPO BKN004
2019/12/15 07:50 EETU 150750Z AUTO 13007KT 9999 OVC007/// 01/00 Q0996
   RIGA AIRPORT     EVRA               56 55N  023 58E   10   X     T          6 LV
   LIEPAJA INTL     EVLA        26406  56 31N  021 06E    4   X                8 LV
   VENTPILS         EVVA               57 21N  021 33E    6   X                8 LV
   KAUNAS           EYKA               54 54N  023 55E   77   X     T          6 LT
   PALANGA INTL     EYPA               55 55N  021 03E   10   X                6 LT
   SIAULIAI INTL    EYSA               55 54N  023 24E  135   X     T          6 LT
   VILNIUS INTL     EYVI        26730  54 38N  025 17E  197   X     T          6 LT
   KARDLA           EEKA        26116  58 59N  022 50E    4   X                8 EE
   KURESSAARE       EEKE               58 14N  022 31E    4   X                8 EE
   PARNU            EEPU               58 25N  024 28E   14   X                8 EE
   TALLINN          EETN        26038  59 24N  024 49E   40   X     T          8 EE
   TARTU            EETU               58 19N  026 41E   67   X                8 EE